createdAt,value
2023-03-05T00:00:28.178Z,10.00
2023-03-05T00:02:54.580Z,9.77
2023-03-05T00:05:21.002Z,8.45
2023-03-05T00:07:48.880Z,9.63
2023-03-05T00:10:15.462Z,9.85
2023-03-05T00:12:41.926Z,9.50
2023-03-05T00:15:09.143Z,9.70
2023-03-05T00:17:35.700Z,9.73
2023-03-05T00:20:02.575Z,10.05
2023-03-05T00:22:29.161Z,9.90
2023-03-05T00:24:55.522Z,9.20
2023-03-05T00:27:21.994Z,8.85
2023-03-05T00:29:48.413Z,8.15
2023-03-05T00:32:14.859Z,10.55
2023-03-05T00:34:41.231Z,9.70
2023-03-05T00:37:07.668Z,10.15
2023-03-05T00:39:34.125Z,9.52
2023-03-05T00:42:00.487Z,9.82
2023-03-05T00:44:26.917Z,8.13
2023-03-05T00:46:53.390Z,10.25
2023-03-05T00:49:19.958Z,9.13
2023-03-05T00:51:46.535Z,10.90
2023-03-05T00:54:13.147Z,10.48
2023-03-05T00:56:39.514Z,8.70
2023-03-05T00:59:05.998Z,9.63
2023-03-05T01:01:32.464Z,10.48
2023-03-05T01:04:01.028Z,7.88
2023-03-05T01:06:27.943Z,9.20
2023-03-05T01:08:54.364Z,9.02
2023-03-05T01:11:20.687Z,11.23
2023-03-05T01:13:47.076Z,10.23
2023-03-05T01:16:13.548Z,10.75
2023-03-05T01:18:40.456Z,10.35
2023-03-05T01:21:07.274Z,10.35
2023-03-05T01:23:35.680Z,9.77
2023-03-05T01:26:01.998Z,10.30
2023-03-05T01:28:28.588Z,9.88
2023-03-05T01:30:54.961Z,10.35
2023-03-05T01:33:21.378Z,10.77
2023-03-05T01:35:48.669Z,9.27
2023-03-05T01:38:15.732Z,10.05
2023-03-05T01:40:43.456Z,9.25
2023-03-05T01:43:12.750Z,10.48
2023-03-05T01:46:11.162Z,10.57
2023-03-05T01:48:37.658Z,10.80
2023-03-05T01:51:04.333Z,10.48
2023-03-05T01:53:31.342Z,9.93
2023-03-05T01:55:58.130Z,11.38
2023-03-05T01:58:25.386Z,10.55
2023-03-05T02:00:54.484Z,10.60
2023-03-05T02:03:23.064Z,9.65
2023-03-05T02:05:49.719Z,11.30
2023-03-05T02:08:19.989Z,9.75
2023-03-05T02:10:48.797Z,10.98
2023-03-05T02:13:22.490Z,9.15
2023-03-05T02:15:50.393Z,10.20
2023-03-05T02:18:19.156Z,10.07
2023-03-05T02:20:52.326Z,11.15
2023-03-05T02:23:19.838Z,10.18
2023-03-05T02:25:47.236Z,11.23
2023-03-05T02:28:20.121Z,10.30
2023-03-05T02:30:46.737Z,10.07
2023-03-05T02:33:15.035Z,11.85
2023-03-05T02:35:43.575Z,11.43
2023-03-05T02:38:11.210Z,11.65
2023-03-05T02:40:37.640Z,9.07
2023-03-05T02:43:04.144Z,11.18
2023-03-05T02:45:31.539Z,11.52
2023-03-05T02:47:57.982Z,11.77
2023-03-05T02:50:26.591Z,11.93
2023-03-05T02:52:53.103Z,11.57
2023-03-05T02:55:19.646Z,10.30
2023-03-05T02:57:46.183Z,11.25
2023-03-05T03:00:13.303Z,11.40
2023-03-05T03:02:39.845Z,10.95
2023-03-05T03:05:06.736Z,10.02
2023-03-05T03:07:34.437Z,12.43
2023-03-05T03:10:00.767Z,11.38
2023-03-05T03:12:27.292Z,12.20
2023-03-05T03:14:54.857Z,11.25
2023-03-05T03:17:21.230Z,12.40
2023-03-05T03:19:48.128Z,10.60
2023-03-05T03:22:15.979Z,11.50
2023-03-05T03:24:43.616Z,11.60
2023-03-05T03:27:10.621Z,11.55
2023-03-05T03:29:37.242Z,11.68
2023-03-05T03:32:04.575Z,11.60
2023-03-05T03:34:31.337Z,10.45
2023-03-05T03:36:57.682Z,11.40
2023-03-05T03:39:25.428Z,11.55
2023-03-05T03:41:53.261Z,12.23
2023-03-05T03:44:21.036Z,11.68
2023-03-05T03:46:49.297Z,10.93
2023-03-05T03:49:24.880Z,10.48
2023-03-05T03:51:54.084Z,10.95
2023-03-05T03:54:21.737Z,11.23
2023-03-05T03:56:48.091Z,11.13
2023-03-05T03:59:14.624Z,11.20
2023-03-05T04:01:41.167Z,10.82
2023-03-05T04:04:08.772Z,10.45
2023-03-05T04:06:35.228Z,10.18
2023-03-05T04:09:01.642Z,11.65
2023-03-05T04:11:28.038Z,12.88
2023-03-05T04:13:54.465Z,9.73
2023-03-05T04:16:21.036Z,12.18
2023-03-05T04:18:47.631Z,10.32
2023-03-05T04:21:14.102Z,12.02
2023-03-05T04:23:40.695Z,11.73
2023-03-05T04:26:07.578Z,10.27
2023-03-05T04:28:34.416Z,11.20
2023-03-05T04:31:00.892Z,11.52
2023-03-05T04:33:27.364Z,11.63
2023-03-05T04:35:53.965Z,11.90
2023-03-05T04:38:20.402Z,11.32
2023-03-05T04:40:46.917Z,11.30
2023-03-05T04:43:13.578Z,10.13
2023-03-05T04:45:44.008Z,10.95
2023-03-05T04:48:11.584Z,11.55
2023-03-05T04:50:38.108Z,12.50
2023-03-05T04:53:04.785Z,10.55
2023-03-05T04:55:31.224Z,10.50
2023-03-05T04:57:57.833Z,11.77
2023-03-05T05:00:24.777Z,10.38
2023-03-05T05:02:51.918Z,9.60
2023-03-05T05:05:21.780Z,12.63
2023-03-05T05:07:48.216Z,11.05
2023-03-05T05:10:15.883Z,10.00
2023-03-05T05:12:42.903Z,10.15
2023-03-05T05:15:11.188Z,10.20
2023-03-05T05:17:37.587Z,10.43
2023-03-05T05:20:08.652Z,11.45
2023-03-05T05:22:35.382Z,10.95
2023-03-05T05:25:01.983Z,10.02
2023-03-05T05:27:28.448Z,10.52
2023-03-05T05:29:54.792Z,10.70
2023-03-05T05:32:23.869Z,10.38
2023-03-05T05:34:58.332Z,11.68
2023-03-05T05:37:26.059Z,11.60
2023-03-05T05:39:53.001Z,9.02
2023-03-05T05:42:21.829Z,10.73
2023-03-05T05:44:48.500Z,10.70
2023-03-05T05:47:16.254Z,10.43
2023-03-05T05:49:42.712Z,10.38
2023-03-05T05:52:09.335Z,10.07
2023-03-05T05:54:35.857Z,10.05
2023-03-05T05:57:02.393Z,10.63
2023-03-05T05:59:28.768Z,10.10
2023-03-05T06:01:55.180Z,9.88
2023-03-05T06:04:21.874Z,12.00
2023-03-05T06:06:48.332Z,9.13
2023-03-05T06:09:15.109Z,9.68
2023-03-05T06:11:41.623Z,9.93
2023-03-05T06:14:08.752Z,10.35
2023-03-05T06:16:35.356Z,10.15
2023-03-05T06:19:04.571Z,10.50
2023-03-05T06:21:32.214Z,9.32
2023-03-05T06:23:58.731Z,11.18
2023-03-05T06:26:25.400Z,10.38
2023-03-05T06:28:52.662Z,10.27
2023-03-05T06:31:25.661Z,10.15
2023-03-05T06:33:54.500Z,8.88
2023-03-05T06:36:22.636Z,9.65
2023-03-05T06:38:49.224Z,11.52
2023-03-05T06:41:19.093Z,9.30
2023-03-05T06:43:46.656Z,9.85
2023-03-05T06:46:24.880Z,11.38
2023-03-05T06:48:51.910Z,10.63
2023-03-05T06:51:21.830Z,9.73
2023-03-05T06:53:49.681Z,9.95
2023-03-05T06:56:17.270Z,9.90
2023-03-05T06:58:45.982Z,9.38
2023-03-05T07:01:14.239Z,8.63
2023-03-05T07:03:42.227Z,9.88
2023-03-05T07:06:11.225Z,10.52
2023-03-05T07:08:38.316Z,9.20
2023-03-05T07:11:11.058Z,9.30
2023-03-05T07:13:37.604Z,9.68
2023-03-05T07:16:09.847Z,9.32
2023-03-05T07:18:36.627Z,9.55
2023-03-05T07:21:04.915Z,9.07
2023-03-05T07:23:33.088Z,8.98
2023-03-05T07:26:03.751Z,9.25
2023-03-05T07:28:30.155Z,9.68
2023-03-05T07:31:05.941Z,9.27
2023-03-05T07:33:33.576Z,10.20
2023-03-05T07:36:00.156Z,9.05
2023-03-05T07:38:27.103Z,8.13
2023-03-05T07:40:53.514Z,7.65
2023-03-05T07:43:19.944Z,9.07
2023-03-05T07:45:46.542Z,8.48
2023-03-05T07:48:18.148Z,7.93
2023-03-05T07:50:44.652Z,8.98
2023-03-05T07:53:11.347Z,8.40
2023-03-05T07:55:47.391Z,8.32
2023-03-05T07:58:16.151Z,8.50
2023-03-05T08:00:42.577Z,8.90
2023-03-05T08:03:08.972Z,8.30
2023-03-05T08:05:39.704Z,7.40
2023-03-05T08:08:07.359Z,8.25
2023-03-05T08:10:35.032Z,8.07
2023-03-05T08:13:01.777Z,8.75
2023-03-05T08:15:28.209Z,9.00
2023-03-05T08:17:54.690Z,7.47
2023-03-05T08:20:21.074Z,6.80
2023-03-05T08:22:47.586Z,7.38
2023-03-05T08:25:13.994Z,7.57
2023-03-05T08:27:44.709Z,8.43
2023-03-05T08:30:14.336Z,7.22
2023-03-05T08:32:41.184Z,7.82
2023-03-05T08:35:09.438Z,7.72
2023-03-05T08:37:36.571Z,6.72
2023-03-05T08:40:05.070Z,7.78
2023-03-05T08:42:31.538Z,7.72
2023-03-05T08:44:58.018Z,7.95
2023-03-05T08:47:26.553Z,8.25
2023-03-05T08:49:55.470Z,7.88
2023-03-05T08:52:22.603Z,8.10
2023-03-05T08:54:49.314Z,8.40
2023-03-05T08:57:16.203Z,10.75
2023-03-05T08:59:42.594Z,8.13
2023-03-05T09:02:12.700Z,7.63
2023-03-05T09:04:39.107Z,8.85
2023-03-05T09:07:05.756Z,9.23
2023-03-05T09:09:32.986Z,8.95
2023-03-05T09:12:00.578Z,8.75
2023-03-05T09:14:28.517Z,7.95
2023-03-05T09:16:56.477Z,9.07
2023-03-05T09:19:23.040Z,8.40
2023-03-05T09:21:49.558Z,7.28
2023-03-05T09:24:16.219Z,7.38
2023-03-05T09:26:42.842Z,6.47
2023-03-05T09:29:09.802Z,7.93
2023-03-05T09:31:36.940Z,8.02
2023-03-05T09:34:04.719Z,7.93
2023-03-05T09:36:32.190Z,7.13
2023-03-05T09:38:58.762Z,8.63
2023-03-05T09:41:50.276Z,7.65
2023-03-05T09:44:16.638Z,7.78
2023-03-05T09:46:54.906Z,7.85
2023-03-05T09:49:47.350Z,7.25
2023-03-05T09:52:21.926Z,7.78
2023-03-05T09:54:54.197Z,7.82
2023-03-05T09:57:39.005Z,7.65
2023-03-05T10:00:11.975Z,8.23
2023-03-05T10:02:50.276Z,8.40
2023-03-05T10:05:37.368Z,8.68
2023-03-05T10:08:05.824Z,8.15
2023-03-05T10:10:44.811Z,7.78
2023-03-05T10:13:20.848Z,7.60
2023-03-05T10:15:56.335Z,8.95
2023-03-05T10:18:34.128Z,9.98
2023-03-05T10:21:18.195Z,7.57
2023-03-05T10:24:25.378Z,12.95
2023-03-05T10:27:00.985Z,7.70
2023-03-05T10:30:18.491Z,8.00
2023-03-05T10:32:53.892Z,7.45
2023-03-05T10:35:40.743Z,6.93
2023-03-05T10:38:35.166Z,7.97
2023-03-05T10:41:14.392Z,7.93
2023-03-05T10:43:57.817Z,8.68
2023-03-05T10:46:32.827Z,9.30
2023-03-05T10:49:21.557Z,8.57
2023-03-05T10:51:47.885Z,7.93
2023-03-05T10:54:29.808Z,7.60
2023-03-05T10:57:18.328Z,8.63
2023-03-05T11:02:19.728Z,8.48
2023-03-05T11:04:49.640Z,8.00
2023-03-05T11:07:16.081Z,8.85
2023-03-05T11:10:04.218Z,7.47
2023-03-05T11:12:32.912Z,6.38
2023-03-05T11:15:09.815Z,7.25
2023-03-05T11:17:43.368Z,7.03
2023-03-05T11:20:31.591Z,7.57
2023-03-05T11:23:25.188Z,8.48
2023-03-05T11:26:00.889Z,7.20
2023-03-05T11:28:36.287Z,7.25
2023-03-05T11:31:21.624Z,6.40
2023-03-05T11:34:04.005Z,6.03
2023-03-05T11:36:33.605Z,6.32
2023-03-05T11:39:17.139Z,6.93
2023-03-05T11:41:57.950Z,6.38
2023-03-05T11:44:29.435Z,8.85
2023-03-05T11:47:01.821Z,7.50
2023-03-05T11:49:30.720Z,7.85
2023-03-05T11:52:08.442Z,6.72
2023-03-05T11:54:45.248Z,6.22
2023-03-05T11:57:15.097Z,7.65
2023-03-05T11:59:42.587Z,7.07
2023-03-05T12:02:20.086Z,6.95
2023-03-05T12:04:48.577Z,6.63
2023-03-05T12:07:21.339Z,6.68
2023-03-05T12:09:51.503Z,6.00
2023-03-05T12:12:38.087Z,6.43
2023-03-05T12:15:23.337Z,7.18
2023-03-05T12:17:56.796Z,7.90
2023-03-05T12:20:37.819Z,8.20
2023-03-05T12:23:04.401Z,8.25
2023-03-05T12:25:55.139Z,7.20
2023-03-05T12:28:30.881Z,7.80
2023-03-05T12:31:28.997Z,7.03
2023-03-05T12:33:55.447Z,6.00
2023-03-05T12:36:21.731Z,6.10
2023-03-05T12:38:52.564Z,5.40
2023-03-05T12:41:21.893Z,5.70
2023-03-05T12:44:17.947Z,5.50
2023-03-05T12:47:12.222Z,6.10
2023-03-05T12:49:39.929Z,4.80
2023-03-05T12:52:21.581Z,4.65
2023-03-05T12:55:06.075Z,5.05
2023-03-05T12:57:33.180Z,3.85
2023-03-05T13:00:05.309Z,3.92
2023-03-05T13:02:37.312Z,4.18
2023-03-05T13:05:16.840Z,3.25
2023-03-05T13:07:43.250Z,3.40
2023-03-05T13:10:28.084Z,3.72
2023-03-05T13:12:57.009Z,3.33
2023-03-05T13:15:25.901Z,4.40
2023-03-05T13:17:58.968Z,5.82
2023-03-05T13:20:43.305Z,6.60
2023-03-05T13:23:45.349Z,4.25
2023-03-05T13:26:18.367Z,4.65
2023-03-05T13:29:03.300Z,3.85
2023-03-05T13:31:30.570Z,3.75
2023-03-05T13:34:10.652Z,3.15
2023-03-05T13:36:38.289Z,2.63
2023-03-05T13:39:06.634Z,2.60
2023-03-05T13:41:33.126Z,3.05
2023-03-05T13:44:02.505Z,3.08
2023-03-05T13:46:38.200Z,2.60
2023-03-05T13:49:18.322Z,2.60
2023-03-05T13:51:48.488Z,2.55
2023-03-05T13:54:16.931Z,2.05
2023-03-05T13:57:29.712Z,2.35
2023-03-05T13:59:56.074Z,2.47
2023-03-05T14:02:23.677Z,2.22
2023-03-05T14:04:50.431Z,2.17
2023-03-05T14:07:29.004Z,2.03
2023-03-05T14:09:56.666Z,2.47
2023-03-05T14:12:42.521Z,2.70
2023-03-05T14:15:25.979Z,1.73
2023-03-05T14:17:52.923Z,1.60
2023-03-05T14:20:23.743Z,2.38
2023-03-05T14:22:58.521Z,1.85
2023-03-05T14:25:28.060Z,1.85
2023-03-05T14:27:54.576Z,1.52
2023-03-05T14:30:22.684Z,2.13
2023-03-05T14:32:51.035Z,1.20
2023-03-05T14:35:20.802Z,1.77
2023-03-05T14:37:50.189Z,1.63
2023-03-05T14:40:34.344Z,1.45
2023-03-05T14:43:04.048Z,1.92
2023-03-05T14:45:39.320Z,1.27
2023-03-05T14:48:07.932Z,1.33
2023-03-05T14:50:37.384Z,1.17
2023-03-05T14:53:13.866Z,1.10
2023-03-05T14:55:43.517Z,1.65
2023-03-05T14:58:16.463Z,1.45
2023-03-05T15:00:43.238Z,2.00
2023-03-05T15:03:13.840Z,2.03
2023-03-05T15:05:41.243Z,1.90
2023-03-05T15:08:14.816Z,1.42
2023-03-05T15:10:41.244Z,1.60
2023-03-05T15:13:08.566Z,1.73
2023-03-05T15:15:34.977Z,1.15
2023-03-05T15:18:01.770Z,1.33
2023-03-05T15:20:30.049Z,1.52
2023-03-05T15:22:56.430Z,1.75
2023-03-05T15:25:24.227Z,1.33
2023-03-05T15:27:50.918Z,1.58
2023-03-05T15:30:28.399Z,1.58
2023-03-05T15:32:57.422Z,2.10
2023-03-05T15:35:25.169Z,1.60
2023-03-05T15:37:52.184Z,1.65
2023-03-05T15:40:20.856Z,1.70
2023-03-05T15:42:48.240Z,2.35
2023-03-05T15:45:15.056Z,1.70
2023-03-05T15:47:41.547Z,2.00
2023-03-05T15:50:09.957Z,1.75
2023-03-05T15:52:36.418Z,2.17
2023-03-05T15:55:03.432Z,2.30
2023-03-05T15:57:29.786Z,2.15
2023-03-05T15:59:56.255Z,1.65
2023-03-05T16:02:24.593Z,1.63
2023-03-05T16:04:51.028Z,1.55
2023-03-05T16:07:17.543Z,1.73
2023-03-05T16:09:49.401Z,2.92
2023-03-05T16:12:20.672Z,2.10
2023-03-05T16:14:50.808Z,1.92
2023-03-05T16:17:20.581Z,1.77
2023-03-05T16:19:50.432Z,1.98
2023-03-05T16:22:16.831Z,1.70
2023-03-05T16:24:43.208Z,1.67
2023-03-05T16:27:10.273Z,2.20
2023-03-05T16:29:36.832Z,2.17
2023-03-05T16:32:04.712Z,2.17
2023-03-05T16:34:32.393Z,1.92
2023-03-05T16:37:00.829Z,2.03
2023-03-05T16:39:28.237Z,2.90
2023-03-05T16:41:54.673Z,3.70
2023-03-05T16:44:21.075Z,1.80
2023-03-05T16:46:49.128Z,1.83
2023-03-05T16:49:16.320Z,1.60
2023-03-05T16:51:42.739Z,1.60
2023-03-05T16:54:10.147Z,1.95
2023-03-05T16:56:36.793Z,2.13
2023-03-05T16:59:04.109Z,2.22
2023-03-05T17:01:30.615Z,1.45
2023-03-05T17:03:58.223Z,1.40
2023-03-05T17:06:28.584Z,2.55
2023-03-05T17:08:55.764Z,2.40
2023-03-05T17:11:22.527Z,2.00
2023-03-05T17:13:49.335Z,2.55
2023-03-05T17:16:18.007Z,2.80
2023-03-05T17:18:44.894Z,2.70
2023-03-05T17:21:12.281Z,2.10
2023-03-05T17:23:39.843Z,2.72
2023-03-05T17:26:08.305Z,2.60
2023-03-05T17:28:34.870Z,3.38
2023-03-05T17:31:01.762Z,2.70
2023-03-05T17:33:29.003Z,3.08
2023-03-05T17:35:55.664Z,2.67
2023-03-05T17:38:22.753Z,2.45
2023-03-05T17:40:49.329Z,2.90
2023-03-05T17:43:15.871Z,2.13
2023-03-05T17:45:42.424Z,2.35
2023-03-05T17:48:11.192Z,2.42
2023-03-05T17:50:37.745Z,3.50
2023-03-05T17:53:04.627Z,2.83
2023-03-05T17:55:33.377Z,3.00
2023-03-05T17:57:59.859Z,3.15
2023-03-05T18:00:29.291Z,2.80
2023-03-05T18:02:57.472Z,2.60
2023-03-05T18:05:24.980Z,2.60
2023-03-05T18:07:52.350Z,2.15
2023-03-05T18:10:21.329Z,2.17
2023-03-05T18:13:18.667Z,2.05
2023-03-05T18:15:47.612Z,2.72
2023-03-05T18:18:15.979Z,2.83
2023-03-05T18:20:42.577Z,2.28
2023-03-05T18:23:09.428Z,3.10
2023-03-05T18:25:35.943Z,2.85
2023-03-05T18:28:07.207Z,3.38
2023-03-05T18:30:34.542Z,3.38
2023-03-05T18:33:01.372Z,4.07
2023-03-05T18:35:32.334Z,3.33
2023-03-05T18:37:59.441Z,3.08
2023-03-05T18:40:29.281Z,5.13
2023-03-05T18:42:55.794Z,4.35
2023-03-05T18:45:23.096Z,3.05
2023-03-05T18:47:54.002Z,3.30
2023-03-05T18:50:22.288Z,3.10
2023-03-05T18:52:48.722Z,4.10
2023-03-05T18:55:22.512Z,2.90
2023-03-05T18:57:49.254Z,2.85
2023-03-05T19:00:19.778Z,3.13
2023-03-05T19:02:46.709Z,3.33
2023-03-05T19:05:15.470Z,3.58
2023-03-05T19:07:42.472Z,3.50
2023-03-05T19:10:11.334Z,3.17
2023-03-05T19:13:18.624Z,3.15
2023-03-05T19:15:45.133Z,3.60
2023-03-05T19:18:13.068Z,3.58
2023-03-05T19:20:39.590Z,2.85
2023-03-05T19:23:06.049Z,3.05
2023-03-05T19:25:32.470Z,3.75
2023-03-05T19:27:58.907Z,4.20
2023-03-05T19:30:25.390Z,3.53
2023-03-05T19:32:52.025Z,2.97
2023-03-05T19:35:18.598Z,3.28
2023-03-05T19:37:45.890Z,3.50
2023-03-05T19:40:14.448Z,3.50
2023-03-05T19:42:40.899Z,3.75
2023-03-05T19:45:07.975Z,4.18
2023-03-05T19:47:34.516Z,3.58
2023-03-05T19:50:01.035Z,3.65
2023-03-05T19:52:27.598Z,4.10
2023-03-05T19:54:53.967Z,3.22
2023-03-05T19:57:20.368Z,4.50
2023-03-05T19:59:46.745Z,4.38
2023-03-05T20:02:13.496Z,4.55
2023-03-05T20:04:39.986Z,14.73
2023-03-05T20:07:07.056Z,4.68
2023-03-05T20:09:33.508Z,4.25
2023-03-05T20:12:02.627Z,3.72
2023-03-05T20:14:29.087Z,4.22
2023-03-05T20:16:55.478Z,4.22
2023-03-05T20:19:21.903Z,4.13
2023-03-05T20:21:48.448Z,4.53
2023-03-05T20:24:16.719Z,4.90
2023-03-05T20:26:44.591Z,5.32
2023-03-05T20:29:12.227Z,4.45
2023-03-05T20:31:39.060Z,4.47
2023-03-05T20:34:08.222Z,4.53
2023-03-05T20:36:35.078Z,4.47
2023-03-05T20:39:03.286Z,3.70
2023-03-05T20:41:30.390Z,4.53
2023-03-05T20:43:56.907Z,5.35
2023-03-05T20:46:28.922Z,4.70
2023-03-05T20:48:58.930Z,4.38
2023-03-05T20:51:33.826Z,4.05
2023-03-05T20:54:06.011Z,4.07
2023-03-05T20:56:34.779Z,4.28
2023-03-05T20:59:04.404Z,4.57
2023-03-05T21:01:32.983Z,4.05
2023-03-05T21:04:00.241Z,4.22
2023-03-05T21:06:28.564Z,4.43
2023-03-05T21:08:55.625Z,3.55
2023-03-05T21:11:22.662Z,4.03
2023-03-05T21:13:49.030Z,4.13
2023-03-05T21:16:18.928Z,3.88
2023-03-05T21:18:45.878Z,4.43
2023-03-05T21:21:12.335Z,3.85
2023-03-05T21:23:38.713Z,3.72
2023-03-05T21:26:05.391Z,4.05
2023-03-05T21:28:31.993Z,3.65
2023-03-05T21:30:58.875Z,3.67
2023-03-05T21:33:30.407Z,3.95
2023-03-05T21:35:58.052Z,3.88
2023-03-05T21:38:25.579Z,3.33
2023-03-05T21:40:53.771Z,5.20
2023-03-05T21:43:22.917Z,3.10
2023-03-05T21:45:53.328Z,3.50
2023-03-05T21:48:21.521Z,4.45
2023-03-05T21:50:48.685Z,2.90
2023-03-05T21:53:19.454Z,4.20
2023-03-05T21:56:13.442Z,2.88
2023-03-05T21:58:39.856Z,2.97
2023-03-05T22:01:06.247Z,3.13
2023-03-05T22:03:32.753Z,3.28
2023-03-05T22:05:59.375Z,4.00
2023-03-05T22:08:25.815Z,2.92
2023-03-05T22:10:52.281Z,3.85
2023-03-05T22:13:20.062Z,3.95
2023-03-05T22:15:59.344Z,3.03
2023-03-05T22:18:28.383Z,3.47
2023-03-05T22:20:56.368Z,3.35
2023-03-05T22:23:24.717Z,3.25
2023-03-05T22:25:58.608Z,3.88
2023-03-05T22:28:25.959Z,4.05
2023-03-05T22:30:52.908Z,3.58
2023-03-05T22:33:21.971Z,4.72
2023-03-05T22:35:49.484Z,5.18
2023-03-05T22:38:16.185Z,5.55
2023-03-05T22:40:47.341Z,4.90
2023-03-05T22:43:14.900Z,5.15
2023-03-05T22:45:41.576Z,4.70
2023-03-05T22:48:11.984Z,5.63
2023-03-05T22:50:39.261Z,5.68
2023-03-05T22:53:05.707Z,5.13
2023-03-05T22:55:32.173Z,5.07
2023-03-05T22:57:58.576Z,5.43
2023-03-05T23:00:26.688Z,5.38
2023-03-05T23:02:53.673Z,5.85
2023-03-05T23:05:20.606Z,5.07
2023-03-05T23:07:47.102Z,6.18
2023-03-05T23:10:23.847Z,4.88
2023-03-05T23:12:53.703Z,7.80
2023-03-05T23:15:24.373Z,6.18
2023-03-05T23:17:51.502Z,4.55
2023-03-05T23:20:20.841Z,4.15
2023-03-05T23:22:48.584Z,4.57
2023-03-05T23:25:16.338Z,4.82
2023-03-05T23:27:42.982Z,5.60
2023-03-05T23:30:14.008Z,5.93
2023-03-05T23:32:40.520Z,4.35
2023-03-05T23:35:09.117Z,4.25
2023-03-05T23:37:35.513Z,3.95
2023-03-05T23:40:03.087Z,3.72
2023-03-05T23:42:29.497Z,3.80
2023-03-05T23:44:56.029Z,3.63
2023-03-05T23:47:22.561Z,2.70
2023-03-05T23:49:49.045Z,2.88
2023-03-05T23:52:15.449Z,2.40
2023-03-05T23:54:41.786Z,3.55
2023-03-05T23:57:08.280Z,2.97
2023-03-05T23:59:34.969Z,3.50
